Time;durP1;ratioP1;P1;durP2;ratioP2;P2;SDS_P1;SDS_P2;PMS_P1;PMS_P2;Temp;Humidity;BMP_temperature;BMP_pressure;BME280_temperature;BME280_humidity;BME280_pressure;Samples;Min_cycle;Max_cycle;Signal;HPM_P1;HPM_P2
2023/10/03 00:01:46;;;;;;;18.65;7.13;;;12.80;99.90;;;;;;6212344;28;20042;-78
2023/10/03 00:04:50;;;;;;;13.65;8.10;;;12.80;99.90;;;;;;6220777;28;20062;-77
2023/10/03 00:07:53;;;;;;;17.55;8.32;;;12.80;99.90;;;;;;6221065;28;20092;-77
2023/10/03 00:10:55;;;;;;;13.40;6.43;;;12.70;99.90;;;;;;6212438;28;20585;-77
2023/10/03 00:14:00;;;;;;;20.35;8.93;;;12.80;99.90;;;;;;6224354;28;20052;-77
2023/10/03 00:17:01;;;;;;;15.43;7.18;;;12.70;99.90;;;;;;6213599;28;20060;-77
2023/10/03 00:20:05;;;;;;;16.42;6.80;;;12.70;99.90;;;;;;6219680;28;20057;-78
2023/10/03 00:23:07;;;;;;;16.67;8.63;;;12.70;99.90;;;;;;6209586;28;20050;-78
2023/10/03 00:26:15;;;;;;;15.18;6.05;;;12.70;99.90;;;;;;6221756;28;20045;-76
2023/10/03 00:29:29;;;;;;;15.15;7.03;;;12.60;99.90;;;;;;6214847;28;20516;-76
2023/10/03 00:32:31;;;;;;;15.95;6.47;;;12.60;99.90;;;;;;6223580;28;20426;-76
2023/10/03 00:35:36;;;;;;;15.52;7.85;;;12.50;99.90;;;;;;6226033;28;20052;-77
2023/10/03 00:38:40;;;;;;;13.30;6.72;;;12.50;99.90;;;;;;6212366;28;20136;-76
2023/10/03 00:41:44;;;;;;;18.75;7.80;;;12.50;99.90;;;;;;6222546;28;20049;-77
2023/10/03 00:44:51;;;;;;;21.85;8.20;;;12.50;99.90;;;;;;6223356;28;20097;-77
2023/10/03 00:48:06;;;;;;;19.52;7.57;;;12.40;99.90;;;;;;6224531;28;20840;-77
2023/10/03 00:51:16;;;;;;;18.40;7.65;;;12.40;99.90;;;;;;6229476;28;20058;-77
2023/10/03 00:54:27;;;;;;;17.48;8.15;;;12.30;99.90;;;;;;6226590;28;20057;-77
2023/10/03 00:57:34;;;;;;;19.23;8.65;;;12.30;99.90;;;;;;6215515;28;20065;-77
2023/10/03 01:00:44;;;;;;;20.15;7.65;;;12.30;99.90;;;;;;6225742;28;20054;-77
2023/10/03 01:03:49;;;;;;;19.52;7.95;;;12.30;99.90;;;;;;6224724;28;20052;-75
2023/10/03 01:06:53;;;;;;;21.42;8.55;;;12.20;99.90;;;;;;6224194;28;20045;-77
2023/10/03 01:09:54;;;;;;;14.70;8.07;;;12.20;99.90;;;;;;6214347;28;20489;-76
2023/10/03 01:12:59;;;;;;;19.00;8.20;;;12.20;99.90;;;;;;6217643;28;20132;-78
2023/10/03 01:16:01;;;;;;;14.77;7.10;;;12.10;99.90;;;;;;6224741;28;20042;-76
2023/10/03 01:19:13;;;;;;;13.82;6.95;;;12.10;99.90;;;;;;6226579;28;20054;-77
2023/10/03 01:22:39;;;;;;;20.73;8.32;;;12.00;99.90;;;;;;6224639;28;20052;-77
2023/10/03 01:26:06;;;;;;;14.88;6.90;;;12.00;99.90;;;;;;6226506;28;20530;-77
2023/10/03 01:29:12;;;;;;;18.83;7.72;;;12.00;99.90;;;;;;6227494;28;20058;-76
2023/10/03 01:32:16;;;;;;;15.13;7.47;;;11.90;99.90;;;;;;6226986;28;20050;-77
2023/10/03 01:35:18;;;;;;;20.08;7.55;;;12.00;99.90;;;;;;6223258;28;20193;-77
2023/10/03 01:38:22;;;;;;;23.40;9.25;;;11.90;99.90;;;;;;6223654;28;20050;-77
2023/10/03 01:41:27;;;;;;;22.17;8.45;;;11.90;99.90;;;;;;6228784;28;20042;-77
2023/10/03 01:44:29;;;;;;;23.35;9.43;;;11.90;99.90;;;;;;6228549;28;20057;-78
2023/10/03 01:47:30;;;;;;;20.88;6.93;;;11.90;99.90;;;;;;6231589;28;20050;-76
2023/10/03 01:50:35;;;;;;;23.50;7.55;;;11.90;99.90;;;;;;6213770;28;20076;-77
2023/10/03 01:53:39;;;;;;;14.10;7.57;;;11.90;99.90;;;;;;6217189;28;20488;-76
2023/10/03 01:56:42;;;;;;;21.38;8.95;;;11.90;99.90;;;;;;6225028;28;20045;-76
2023/10/03 01:59:44;;;;;;;19.75;8.02;;;11.90;99.90;;;;;;6221403;28;20124;-76
2023/10/03 02:02:46;;;;;;;12.50;6.45;;;11.80;99.90;;;;;;6223166;28;20093;-76
2023/10/03 02:05:51;;;;;;;19.33;7.07;;;11.90;99.90;;;;;;6222969;28;20042;-76
2023/10/03 02:08:53;;;;;;;14.93;7.13;;;11.90;99.90;;;;;;6216035;28;20129;-77
2023/10/03 02:11:59;;;;;;;19.02;9.07;;;11.90;99.90;;;;;;6223056;28;20095;-76
2023/10/03 02:15:07;;;;;;;16.20;7.43;;;11.90;99.90;;;;;;6221947;28;20423;-76
2023/10/03 02:18:10;;;;;;;17.67;8.25;;;11.90;99.90;;;;;;6214146;28;20414;-77
2023/10/03 02:21:23;;;;;;;17.05;7.50;;;11.90;99.90;;;;;;6210758;28;20438;-76
2023/10/03 02:24:34;;;;;;;14.55;7.18;;;11.80;99.90;;;;;;6218751;28;20053;-77
2023/10/03 02:28:07;;;;;;;15.80;8.55;;;11.80;99.90;;;;;;6222540;28;20054;-77
2023/10/03 02:31:15;;;;;;;26.08;10.50;;;11.80;99.90;;;;;;6196465;28;20046;-77
2023/10/03 02:34:20;;;;;;;22.50;8.52;;;11.90;99.90;;;;;;6208051;28;20053;-77
2023/10/03 02:37:22;;;;;;;18.08;8.02;;;11.90;99.90;;;;;;6222801;28;20049;-77
2023/10/03 02:40:26;;;;;;;15.05;7.60;;;12.00;99.90;;;;;;6223453;28;20061;-77
2023/10/03 02:43:33;;;;;;;16.48;8.52;;;12.10;99.90;;;;;;6216461;28;20058;-77
2023/10/03 02:46:35;;;;;;;19.33;9.95;;;12.10;99.90;;;;;;6222418;28;20058;-77
2023/10/03 02:49:36;;;;;;;16.98;8.25;;;12.10;99.90;;;;;;6214071;28;20527;-76
2023/10/03 02:52:39;;;;;;;20.55;9.50;;;12.10;99.90;;;;;;6223336;28;20073;-77
2023/10/03 02:55:41;;;;;;;18.33;9.52;;;12.10;99.90;;;;;;6214148;28;20422;-76
2023/10/03 02:58:45;;;;;;;14.90;8.95;;;12.10;99.90;;;;;;6222789;28;20066;-77
2023/10/03 03:05:16;;;;;;;12.38;7.57;;;12.10;99.90;;;;;;6220645;28;20718;-76
2023/10/03 03:08:25;;;;;;;19.20;7.97;;;12.10;99.90;;;;;;6223700;28;20054;-76
2023/10/03 03:11:31;;;;;;;22.95;7.72;;;12.10;99.90;;;;;;6222205;28;20058;-76
2023/10/03 03:14:42;;;;;;;17.70;8.63;;;12.20;99.90;;;;;;6221952;28;20188;-77
2023/10/03 03:18:02;;;;;;;15.30;7.00;;;12.20;99.90;;;;;;6222274;28;20053;-76
2023/10/03 03:21:08;;;;;;;17.38;6.82;;;12.20;99.90;;;;;;6222424;28;20196;-76
2023/10/03 03:24:33;;;;;;;15.73;8.02;;;12.20;99.90;;;;;;6222660;28;20144;-77
2023/10/03 03:27:41;;;;;;;18.52;7.10;;;12.20;99.90;;;;;;6221999;28;20132;-77
2023/10/03 03:30:58;;;;;;;14.75;7.13;;;12.30;99.90;;;;;;6221672;28;20414;-77
2023/10/03 03:34:01;;;;;;;16.75;7.00;;;12.30;99.90;;;;;;6221797;28;20041;-77
2023/10/03 03:37:21;;;;;;;14.02;7.70;;;12.40;99.90;;;;;;6223872;28;20061;-77
2023/10/03 03:40:34;;;;;;;25.08;9.43;;;12.40;99.90;;;;;;6226192;28;20053;-77
2023/10/03 03:43:36;;;;;;;20.63;8.15;;;12.50;99.90;;;;;;6228065;28;20116;-77
2023/10/03 03:46:55;;;;;;;20.23;8.32;;;12.50;99.90;;;;;;6214295;28;20050;-77
2023/10/03 03:50:01;;;;;;;15.80;6.80;;;12.50;99.90;;;;;;6224973;28;20406;-77
2023/10/03 03:53:10;;;;;;;24.27;9.82;;;12.50;99.90;;;;;;6218039;28;20073;-77
2023/10/03 03:56:23;;;;;;;16.75;9.30;;;12.60;99.90;;;;;;6224958;28;20643;-77
2023/10/03 03:59:35;;;;;;;27.88;9.40;;;12.60;99.90;;;;;;6225255;28;20046;-77
2023/10/03 04:02:48;;;;;;;14.32;7.40;;;12.70;99.90;;;;;;6224575;28;20041;-77
2023/10/03 04:05:50;;;;;;;14.23;7.18;;;12.70;99.90;;;;;;6223817;28;20546;-77
2023/10/03 04:08:54;;;;;;;23.52;6.88;;;12.70;99.90;;;;;;6229232;28;20050;-77
2023/10/03 04:11:57;;;;;;;16.60;8.35;;;12.70;99.90;;;;;;6260066;22;20051;-79
2023/10/03 04:14:59;;;;;;;16.98;7.53;;;12.70;99.90;;;;;;6242803;28;20049;-78
2023/10/03 04:18:02;;;;;;;14.48;7.28;;;12.60;99.90;;;;;;6250224;28;20041;-78
2023/10/03 04:21:05;;;;;;;14.32;8.75;;;12.60;99.90;;;;;;6250304;28;20051;-78
2023/10/03 04:24:09;;;;;;;14.18;6.28;;;12.60;99.90;;;;;;6249931;28;20123;-78
2023/10/03 04:27:13;;;;;;;16.63;7.70;;;12.50;99.90;;;;;;6249391;28;20045;-79
2023/10/03 04:30:15;;;;;;;12.88;6.75;;;12.40;99.90;;;;;;6248973;28;20120;-78
2023/10/03 04:33:20;;;;;;;19.73;8.98;;;12.40;99.90;;;;;;6248920;28;20053;-78
2023/10/03 04:36:25;;;;;;;21.92;7.88;;;12.40;99.90;;;;;;6248976;28;20406;-78
2023/10/03 04:39:27;;;;;;;13.73;6.43;;;12.40;99.90;;;;;;6249426;28;20051;-79
2023/10/03 04:42:28;;;;;;;20.73;10.50;;;12.30;99.90;;;;;;6253694;28;20037;-78
2023/10/03 04:45:32;;;;;;;16.92;8.73;;;12.30;99.90;;;;;;6249906;28;20044;-78
2023/10/03 04:48:36;;;;;;;17.85;8.30;;;12.30;99.90;;;;;;6250739;28;20045;-79
2023/10/03 04:51:38;;;;;;;14.88;6.72;;;12.20;99.90;;;;;;6250513;28;20041;-79
2023/10/03 04:54:40;;;;;;;16.45;7.45;;;12.20;99.90;;;;;;6249157;28;20057;-79
2023/10/03 04:57:43;;;;;;;15.05;7.38;;;12.10;99.90;;;;;;6250794;28;20076;-80
2023/10/03 05:00:45;;;;;;;17.80;7.97;;;12.20;99.90;;;;;;6252657;28;20057;-80
2023/10/03 05:03:48;;;;;;;18.02;8.68;;;12.10;99.90;;;;;;6250750;28;20045;-80
2023/10/03 05:06:50;;;;;;;15.32;7.80;;;12.10;99.90;;;;;;6251661;28;20042;-80
2023/10/03 05:09:52;;;;;;;16.25;7.63;;;12.10;99.90;;;;;;6251377;28;20458;-79
2023/10/03 05:12:54;;;;;;;22.30;9.38;;;12.10;99.90;;;;;;6252024;28;20447;-80
2023/10/03 05:15:57;;;;;;;16.23;7.60;;;12.20;99.90;;;;;;6251034;28;20044;-80
2023/10/03 05:19:01;;;;;;;14.68;7.68;;;12.10;99.90;;;;;;6251206;28;20150;-80
2023/10/03 05:22:03;;;;;;;15.60;7.55;;;12.10;99.90;;;;;;6242957;28;20063;-80
2023/10/03 05:25:11;;;;;;;17.33;7.60;;;12.10;99.90;;;;;;6250905;28;20053;-80
2023/10/03 05:28:13;;;;;;;18.98;7.90;;;12.10;99.90;;;;;;6252254;28;20499;-80
2023/10/03 05:31:15;;;;;;;16.40;7.13;;;12.10;99.90;;;;;;6251655;28;20044;-79
2023/10/03 05:34:20;;;;;;;19.42;8.32;;;12.10;99.90;;;;;;6252098;28;20051;-80
2023/10/03 05:37:22;;;;;;;17.83;8.10;;;12.10;99.90;;;;;;6256187;28;20503;-80
2023/10/03 05:40:24;;;;;;;13.52;7.00;;;12.10;99.90;;;;;;6256848;28;20080;-80
2023/10/03 05:43:26;;;;;;;15.40;7.15;;;12.10;99.90;;;;;;6260721;28;20045;-79
2023/10/03 05:46:28;;;;;;;18.33;8.98;;;12.10;99.90;;;;;;6255834;28;20037;-80
2023/10/03 05:49:31;;;;;;;16.30;8.52;;;12.10;99.90;;;;;;6256162;28;20475;-80
2023/10/03 05:52:33;;;;;;;15.55;8.00;;;12.10;99.90;;;;;;6256182;28;20045;-80
2023/10/03 05:55:35;;;;;;;20.38;8.73;;;12.20;99.90;;;;;;6255440;28;20425;-80
2023/10/03 05:58:37;;;;;;;15.68;7.80;;;12.20;99.90;;;;;;6255213;28;20042;-80
2023/10/03 06:01:40;;;;;;;21.85;9.35;;;12.20;99.90;;;;;;6255523;28;20037;-80
2023/10/03 06:04:43;;;;;;;18.33;8.15;;;12.30;99.90;;;;;;6255935;28;20046;-80
2023/10/03 06:07:45;;;;;;;14.77;8.32;;;12.40;99.90;;;;;;6255382;28;20068;-80
2023/10/03 06:10:49;;;;;;;18.52;8.20;;;12.40;99.90;;;;;;6256107;28;20045;-80
2023/10/03 06:13:51;;;;;;;13.00;8.00;;;12.50;99.90;;;;;;6255056;28;20063;-79
2023/10/03 06:16:52;;;;;;;14.77;7.80;;;12.60;99.90;;;;;;6254828;28;20060;-80
2023/10/03 06:19:55;;;;;;;16.23;7.93;;;12.70;99.90;;;;;;6248495;28;20380;-80
2023/10/03 06:22:57;;;;;;;16.02;8.25;;;12.80;99.90;;;;;;6229655;28;20042;-80
2023/10/03 06:25:59;;;;;;;22.77;8.13;;;13.00;99.90;;;;;;6234659;28;20068;-80
2023/10/03 06:29:01;;;;;;;13.73;6.90;;;13.20;99.90;;;;;;6253645;28;20080;-80
2023/10/03 06:32:02;;;;;;;15.20;6.70;;;13.40;99.90;;;;;;6254521;28;20421;-78
2023/10/03 06:35:09;;;;;;;14.10;6.80;;;13.50;99.90;;;;;;6236982;28;20048;-80
2023/10/03 06:38:11;;;;;;;14.43;7.88;;;13.70;99.90;;;;;;6248016;28;20084;-80
2023/10/03 06:41:19;;;;;;;15.85;7.38;;;14.00;99.90;;;;;;6254041;28;20410;-80
2023/10/03 06:44:21;;;;;;;12.43;6.07;;;14.20;99.90;;;;;;6254262;28;20092;-80
2023/10/03 06:47:23;;;;;;;9.85;6.30;;;14.50;99.90;;;;;;6254203;28;20041;-80
2023/10/03 06:50:26;;;;;;;20.40;6.03;;;14.70;99.90;;;;;;6253171;28;20469;-80
2023/10/03 06:53:28;;;;;;;14.82;6.28;;;15.00;99.90;;;;;;6253421;28;20054;-80
2023/10/03 06:56:32;;;;;;;10.40;5.63;;;15.20;99.90;;;;;;6253708;28;20042;-80
2023/10/03 06:59:34;;;;;;;11.77;5.82;;;15.40;99.90;;;;;;6253089;28;20499;-80
2023/10/03 07:02:36;;;;;;;10.95;6.55;;;15.60;99.90;;;;;;6252675;28;20045;-80
2023/10/03 07:05:40;;;;;;;18.88;5.65;;;15.60;99.90;;;;;;6224217;28;20395;-80
2023/10/03 07:08:43;;;;;;;12.75;6.43;;;15.70;99.90;;;;;;6254332;28;20049;-81
2023/10/03 07:12:05;;;;;;;10.95;5.80;;;15.70;99.90;;;;;;6252285;28;20045;-79
2023/10/03 07:15:09;;;;;;;11.32;5.57;;;15.80;99.90;;;;;;6258353;28;20049;-80
2023/10/03 07:18:14;;;;;;;8.52;4.88;;;15.80;99.90;;;;;;6259067;28;20137;-82
2023/10/03 07:21:18;;;;;;;7.90;5.00;;;15.90;99.90;;;;;;6255973;28;20139;-79
2023/10/03 07:24:20;;;;;;;13.48;6.13;;;16.00;99.90;;;;;;6254330;28;20053;-79
2023/10/03 07:27:22;;;;;;;13.88;6.00;;;16.10;99.90;;;;;;6250317;28;20038;-80
2023/10/03 07:30:24;;;;;;;9.40;6.22;;;16.10;99.90;;;;;;6251996;28;20045;-79
2023/10/03 07:33:26;;;;;;;9.30;5.13;;;16.30;99.90;;;;;;6249094;28;20049;-80
2023/10/03 07:36:29;;;;;;;8.52;5.28;;;16.40;99.90;;;;;;6251153;28;20047;-79
2023/10/03 07:39:31;;;;;;;10.50;5.50;;;16.50;99.90;;;;;;6252183;28;20547;-79
2023/10/03 07:42:33;;;;;;;6.95;5.05;;;16.60;99.90;;;;;;6248346;28;20111;-81
2023/10/03 07:45:36;;;;;;;11.13;4.88;;;16.70;99.90;;;;;;6250354;28;20363;-79
2023/10/03 07:48:37;;;;;;;8.95;4.97;;;16.90;99.90;;;;;;6252263;28;20045;-80
2023/10/03 07:51:41;;;;;;;33.35;16.27;;;17.10;99.90;;;;;;6250439;28;20047;-79
2023/10/03 07:54:44;;;;;;;82.45;46.75;;;17.20;99.90;;;;;;6250246;28;20046;-80
2023/10/03 07:57:46;;;;;;;143.85;63.47;;;17.40;99.90;;;;;;6249677;28;20449;-79
2023/10/03 08:00:50;;;;;;;153.77;72.90;;;17.60;99.90;;;;;;6251386;28;20490;-79
2023/10/03 08:03:53;;;;;;;95.97;57.38;;;17.70;99.90;;;;;;6250419;28;20045;-79
2023/10/03 08:06:56;;;;;;;24.63;19.00;;;17.80;99.90;;;;;;6249321;28;20107;-80
2023/10/03 08:10:02;;;;;;;66.90;60.10;;;17.90;99.90;;;;;;6251377;28;20041;-81
2023/10/03 08:13:04;;;;;;;43.17;37.67;;;18.00;99.90;;;;;;6250548;28;20056;-79
2023/10/03 08:16:06;;;;;;;13.52;11.07;;;18.20;99.90;;;;;;6250458;28;20045;-79
2023/10/03 08:19:09;;;;;;;15.02;13.40;;;18.40;99.90;;;;;;6250505;28;20303;-82
2023/10/03 08:22:14;;;;;;;12.77;11.60;;;18.60;99.90;;;;;;6250790;28;20117;-80
2023/10/03 08:25:16;;;;;;;6.82;5.00;;;18.90;99.90;;;;;;6243029;28;20051;-81
2023/10/03 08:28:20;;;;;;;6.15;4.45;;;19.30;99.90;;;;;;6250763;28;20481;-80
2023/10/03 08:31:22;;;;;;;7.00;4.75;;;19.90;99.90;;;;;;6248978;28;20064;-80
2023/10/03 08:34:25;;;;;;;38.00;19.35;;;20.80;99.90;;;;;;6249228;28;20049;-79
2023/10/03 08:37:28;;;;;;;123.88;54.35;;;21.70;99.90;;;;;;6249983;28;20050;-82
2023/10/03 08:40:30;;;;;;;12.57;7.32;;;22.80;99.90;;;;;;6250605;28;20144;-81
2023/10/03 08:43:37;;;;;;;6.80;4.60;;;24.00;98.00;;;;;;6250298;28;20053;-81
2023/10/03 08:46:45;;;;;;;13.10;6.80;;;25.00;94.90;;;;;;6249979;28;20045;-82
2023/10/03 08:49:56;;;;;;;68.00;27.95;;;25.90;92.10;;;;;;6250501;28;20052;-82
2023/10/03 08:53:12;;;;;;;44.55;24.38;;;26.50;89.10;;;;;;6250522;28;20128;-81
2023/10/03 08:56:19;;;;;;;22.98;11.02;;;27.10;85.10;;;;;;6251348;28;20157;-78
2023/10/03 08:59:21;;;;;;;22.87;10.23;;;27.70;80.10;;;;;;6248165;28;20069;-81
2023/10/03 09:02:24;;;;;;;22.23;12.30;;;28.10;77.30;;;;;;6251505;28;20057;-81
2023/10/03 09:05:26;;;;;;;17.15;9.43;;;28.40;74.70;;;;;;6249728;28;20051;-80
2023/10/03 09:08:29;;;;;;;7.43;3.50;;;28.80;73.00;;;;;;6252903;28;20128;-80
2023/10/03 09:11:31;;;;;;;22.25;14.90;;;28.90;70.20;;;;;;6264858;28;20136;-79
2023/10/03 09:14:36;;;;;;;11.13;6.60;;;29.00;68.90;;;;;;6253246;28;20045;-78
2023/10/03 09:17:38;;;;;;;18.63;9.93;;;28.90;67.80;;;;;;6254015;28;20048;-79
2023/10/03 09:20:42;;;;;;;6.57;4.75;;;28.80;67.50;;;;;;6253637;28;20042;-80
2023/10/03 09:24:01;;;;;;;10.57;8.15;;;28.80;66.60;;;;;;6254119;28;20052;-80
2023/10/03 09:27:07;;;;;;;18.15;13.10;;;28.70;66.20;;;;;;6253313;28;20109;-80
2023/10/03 09:30:22;;;;;;;7.10;3.90;;;28.80;66.30;;;;;;6250320;28;20482;-78
2023/10/03 09:33:24;;;;;;;5.70;4.63;;;28.60;66.00;;;;;;6252135;28;20413;-79
2023/10/03 09:36:28;;;;;;;5.55;2.90;;;28.50;65.90;;;;;;6252370;28;20059;-79
2023/10/03 09:39:39;;;;;;;6.68;3.35;;;28.40;65.00;;;;;;6254672;28;20152;-80
2023/10/03 09:42:48;;;;;;;6.10;4.53;;;28.40;65.00;;;;;;6264202;28;20041;-80
2023/10/03 09:45:55;;;;;;;5.30;3.85;;;28.50;64.20;;;;;;6253627;28;20041;-78
2023/10/03 09:49:07;;;;;;;4.78;2.92;;;28.40;64.10;;;;;;6254939;28;20041;-78
2023/10/03 09:52:17;;;;;;;4.20;3.17;;;28.10;64.40;;;;;;6252141;28;20129;-78
2023/10/03 09:55:22;;;;;;;4.68;3.10;;;27.80;64.90;;;;;;6253560;28;20049;-79
2023/10/03 09:58:25;;;;;;;6.05;2.88;;;27.60;65.40;;;;;;6253767;28;20533;-77
2023/10/03 10:01:30;;;;;;;7.57;3.78;;;27.40;65.50;;;;;;6254015;28;20363;-80
2023/10/03 10:04:34;;;;;;;6.57;3.90;;;27.20;66.20;;;;;;6252047;28;20049;-78
2023/10/03 10:07:50;;;;;;;8.70;4.10;;;27.00;66.50;;;;;;6254527;28;20057;-81
2023/10/03 10:11:07;;;;;;;8.70;3.65;;;26.80;66.50;;;;;;6255688;28;20043;-79
2023/10/03 10:14:09;;;;;;;6.30;3.92;;;26.80;67.00;;;;;;6252370;28;20045;-79
2023/10/03 10:17:19;;;;;;;5.68;3.03;;;26.70;67.10;;;;;;6254135;28;20052;-79
2023/10/03 10:20:27;;;;;;;5.25;3.97;;;26.60;67.30;;;;;;6240601;28;20060;-80
2023/10/03 10:23:35;;;;;;;;;;;26.60;67.70;;;;;;6252440;28;20052;-79
2023/10/03 10:26:38;;;;;;;6.28;3.88;;;26.80;67.90;;;;;;6252021;28;19924;-79
2023/10/03 10:29:57;;;;;;;5.88;3.30;;;27.30;67.70;;;;;;6256547;28;20757;-78
2023/10/03 10:33:22;;;;;;;8.07;3.85;;;27.60;66.40;;;;;;6255890;28;20045;-78
2023/10/03 10:37:01;;;;;;;9.63;4.03;;;27.90;65.80;;;;;;6261155;28;20059;-79
2023/10/03 10:43:33;;;;;;;6.18;3.60;;;27.20;66.80;;;;;;6246810;28;20391;-80
2023/10/03 10:46:38;;;;;;;4.32;3.70;;;26.80;67.50;;;;;;6253531;28;20173;-80
2023/10/03 10:49:56;;;;;;;6.22;4.05;;;26.40;68.40;;;;;;6252963;28;20512;-79
2023/10/03 10:53:02;;;;;;;6.57;3.08;;;26.10;69.30;;;;;;6253252;28;20076;-77
2023/10/03 10:56:08;;;;;;;8.75;4.38;;;25.80;70.10;;;;;;6251090;28;20053;-81
2023/10/03 10:59:11;;;;;;;8.32;3.83;;;25.60;70.70;;;;;;6249765;28;20058;-81
2023/10/03 11:02:20;;;;;;;8.88;4.20;;;25.40;71.50;;;;;;6251665;28;20498;-81
2023/10/03 11:05:24;;;;;;;7.38;4.15;;;25.10;72.10;;;;;;6241925;28;20077;-80
2023/10/03 11:08:25;;;;;;;10.80;4.63;;;24.90;72.80;;;;;;6252191;28;20048;-80
2023/10/03 11:11:36;;;;;;;8.65;4.25;;;24.80;73.50;;;;;;6253081;28;20048;-79
2023/10/03 11:14:39;;;;;;;6.32;3.53;;;24.70;74.00;;;;;;6250784;28;20049;-81
2023/10/03 11:17:41;;;;;;;4.93;3.25;;;24.60;74.30;;;;;;6250253;28;20414;-79
2023/10/03 11:20:43;;;;;;;6.47;3.72;;;24.50;74.50;;;;;;6251276;28;20440;-79
2023/10/03 11:24:15;;;;;;;7.25;3.80;;;24.40;74.70;;;;;;6250652;28;20111;-79
2023/10/03 11:27:23;;;;;;;4.60;3.05;;;24.30;75.00;;;;;;6249790;28;20395;-80
2023/10/03 11:30:27;;;;;;;5.20;3.33;;;24.30;75.10;;;;;;6250189;28;20629;-80
2023/10/03 11:33:29;;;;;;;4.15;3.42;;;24.20;75.10;;;;;;6248878;28;20111;-80
2023/10/03 11:36:41;;;;;;;17.15;4.80;;;24.20;75.30;;;;;;6249461;28;20056;-79
2023/10/03 11:39:43;;;;;;;8.95;3.47;;;24.10;75.60;;;;;;6249361;28;20060;-78
2023/10/03 11:42:47;;;;;;;6.60;3.75;;;24.10;75.80;;;;;;6250676;28;20056;-80
2023/10/03 11:45:56;;;;;;;6.13;3.55;;;24.10;76.10;;;;;;6249741;28;20069;-80
2023/10/03 11:48:58;;;;;;;6.55;3.47;;;24.20;76.10;;;;;;6249944;28;20132;-78
2023/10/03 11:52:00;;;;;;;6.45;2.97;;;24.30;76.10;;;;;;6249939;28;20067;-79
2023/10/03 11:55:03;;;;;;;4.70;3.83;;;24.40;76.00;;;;;;6249645;28;20037;-79
2023/10/03 11:58:06;;;;;;;6.63;2.83;;;24.50;76.00;;;;;;6249841;28;20056;-78
2023/10/03 12:01:09;;;;;;;5.68;2.58;;;24.50;75.60;;;;;;6249073;28;20056;-78
2023/10/03 12:04:12;;;;;;;6.70;2.03;;;24.60;75.40;;;;;;6249367;28;20071;-82
2023/10/03 12:07:15;;;;;;;8.40;2.85;;;24.80;74.70;;;;;;6248783;28;20526;-79
2023/10/03 12:10:17;;;;;;;4.28;3.15;;;25.00;74.10;;;;;;6249247;28;20053;-78
2023/10/03 12:13:18;;;;;;;8.07;2.30;;;25.10;73.60;;;;;;6248144;28;20494;-78
2023/10/03 12:16:22;;;;;;;8.88;3.83;;;25.00;73.30;;;;;;6248603;28;20418;-79
2023/10/03 12:19:24;;;;;;;6.47;2.70;;;25.00;73.00;;;;;;6245187;28;20064;-80
2023/10/03 12:22:25;;;;;;;4.07;2.55;;;25.00;73.00;;;;;;6249713;28;20098;-80
2023/10/03 12:25:29;;;;;;;5.03;2.53;;;24.90;73.00;;;;;;6249200;28;20049;-79
2023/10/03 12:28:31;;;;;;;6.00;3.15;;;24.80;73.00;;;;;;6249676;28;20469;-79
2023/10/03 12:31:34;;;;;;;7.07;2.95;;;24.90;73.10;;;;;;6248032;28;20068;-77
2023/10/03 12:34:37;;;;;;;11.73;3.00;;;24.90;72.60;;;;;;6248712;28;20057;-80
2023/10/03 12:37:40;;;;;;;8.25;5.25;;;24.90;72.50;;;;;;6247347;28;20179;-81
2023/10/03 12:40:42;;;;;;;3.80;3.00;;;25.00;72.30;;;;;;6249069;28;20056;-78
2023/10/03 12:43:47;;;;;;;4.00;2.38;;;25.30;71.80;;;;;;6256887;28;20052;-79
2023/10/03 12:46:50;;;;;;;4.63;2.97;;;25.70;71.10;;;;;;6251578;28;20049;-80
2023/10/03 12:49:52;;;;;;;3.88;2.47;;;26.00;70.50;;;;;;6253128;28;20042;-79
2023/10/03 12:52:55;;;;;;;8.43;3.03;;;26.10;69.80;;;;;;6255771;28;20081;-81
2023/10/03 12:55:58;;;;;;;4.78;3.15;;;26.00;69.50;;;;;;6252214;28;20167;-77
2023/10/03 12:59:00;;;;;;;7.68;3.35;;;26.00;69.80;;;;;;6250358;28;20033;-77
2023/10/03 13:02:05;;;;;;;6.72;3.13;;;26.10;69.40;;;;;;6251946;28;20388;-77
2023/10/03 13:05:12;;;;;;;7.55;3.88;;;26.30;69.50;;;;;;6250976;28;20049;-77
2023/10/03 13:08:14;;;;;;;4.65;3.10;;;26.40;69.10;;;;;;6252539;28;20042;-78
2023/10/03 13:11:16;;;;;;;4.85;3.15;;;26.60;69.30;;;;;;6252810;28;20042;-79
2023/10/03 13:14:17;;;;;;;4.53;3.35;;;26.70;68.70;;;;;;6252384;28;20060;-80
2023/10/03 13:17:22;;;;;;;6.68;3.42;;;26.50;68.50;;;;;;6252604;28;20521;-80
2023/10/03 13:20:27;;;;;;;5.32;3.17;;;26.20;69.00;;;;;;6253203;28;20046;-78
2023/10/03 13:23:30;;;;;;;7.22;3.10;;;26.00;69.50;;;;;;6244019;28;20101;-79
2023/10/03 13:26:32;;;;;;;5.60;2.97;;;26.00;69.30;;;;;;6252591;28;20072;-80
2023/10/03 13:29:34;;;;;;;4.30;3.35;;;25.90;69.60;;;;;;6251644;28;20041;-78
2023/10/03 13:32:37;;;;;;;8.65;3.53;;;25.80;69.70;;;;;;6251822;28;20049;-79
2023/10/03 13:35:39;;;;;;;5.25;3.33;;;25.60;69.80;;;;;;6250527;28;20045;-76
2023/10/03 13:38:41;;;;;;;6.57;4.75;;;25.50;70.30;;;;;;6251502;28;20121;-80
2023/10/03 13:41:43;;;;;;;6.90;5.20;;;25.40;70.50;;;;;;6249839;28;20506;-77
2023/10/03 13:44:47;;;;;;;10.88;5.30;;;25.20;70.80;;;;;;6251310;28;20132;-81
2023/10/03 13:47:51;;;;;;;6.88;3.65;;;25.00;70.80;;;;;;6251911;28;20050;-78
2023/10/03 13:50:52;;;;;;;4.90;3.28;;;24.70;71.50;;;;;;6253852;28;20041;-78
2023/10/03 13:53:57;;;;;;;14.50;6.47;;;24.50;72.10;;;;;;6253198;28;20042;-80
2023/10/03 13:56:58;;;;;;;9.70;3.35;;;24.30;72.80;;;;;;6252119;28;20072;-79
2023/10/03 14:00:01;;;;;;;6.68;4.43;;;24.10;73.30;;;;;;6253810;28;20042;-77
2023/10/03 14:03:06;;;;;;;9.13;4.45;;;24.00;73.80;;;;;;6253774;28;20047;-77
2023/10/03 14:06:10;;;;;;;9.68;3.78;;;24.00;74.20;;;;;;6255065;28;20120;-80
2023/10/03 14:09:12;;;;;;;4.93;3.50;;;24.00;74.40;;;;;;6252908;28;20137;-80
2023/10/03 14:12:14;;;;;;;4.47;2.90;;;24.00;74.60;;;;;;6253095;28;20109;-78
2023/10/03 14:15:20;;;;;;;5.28;3.65;;;24.20;74.80;;;;;;6256219;28;20045;-78
2023/10/03 14:18:23;;;;;;;4.05;3.03;;;24.20;74.80;;;;;;6254876;28;20050;-79
2023/10/03 14:21:27;;;;;;;8.55;2.70;;;24.30;74.80;;;;;;6255701;28;20048;-78
2023/10/03 14:24:29;;;;;;;6.65;2.65;;;24.20;74.90;;;;;;6251268;28;20057;-78
2023/10/03 14:27:30;;;;;;;8.25;2.72;;;24.20;75.10;;;;;;6255178;28;20055;-79
2023/10/03 14:30:34;;;;;;;4.68;2.95;;;24.10;75.30;;;;;;6245205;28;20056;-79
2023/10/03 14:33:37;;;;;;;7.72;2.88;;;24.10;75.50;;;;;;6253541;28;20047;-78
2023/10/03 14:36:39;;;;;;;11.88;4.25;;;24.00;76.50;;;;;;6253364;28;20045;-80
2023/10/03 14:39:41;;;;;;;5.60;2.92;;;23.70;78.80;;;;;;6251380;28;20048;-80
2023/10/03 14:42:43;;;;;;;6.70;4.07;;;23.00;80.90;;;;;;6247378;28;20133;-77
2023/10/03 14:45:45;;;;;;;5.40;3.33;;;22.20;84.00;;;;;;6248209;28;20045;-81
2023/10/03 14:48:48;;;;;;;4.63;2.72;;;21.50;87.20;;;;;;6250557;28;20045;-78
2023/10/03 14:51:50;;;;;;;7.07;3.95;;;21.00;90.10;;;;;;6248833;28;20498;-78
2023/10/03 14:54:52;;;;;;;7.07;2.78;;;20.70;91.40;;;;;;6248584;28;20052;-77
2023/10/03 14:57:54;;;;;;;5.75;3.05;;;20.40;92.30;;;;;;6247580;28;20100;-76
2023/10/03 15:01:04;;;;;;;4.53;2.70;;;20.10;93.60;;;;;;6247541;28;20049;-79
2023/10/03 15:04:09;;;;;;;2.92;2.20;;;19.80;95.10;;;;;;6247524;28;20056;-77
2023/10/03 15:07:11;;;;;;;3.33;2.75;;;19.60;96.80;;;;;;6247063;28;20052;-78
2023/10/03 15:10:13;;;;;;;5.57;2.55;;;19.50;98.60;;;;;;6246769;28;20038;-78
2023/10/03 15:13:15;;;;;;;2.78;2.10;;;19.40;99.90;;;;;;6249224;28;20052;-78
2023/10/03 15:16:16;;;;;;;5.63;2.38;;;19.30;99.90;;;;;;6247578;28;20057;-78
2023/10/03 15:19:20;;;;;;;2.03;1.42;;;19.30;99.90;;;;;;6246931;28;20052;-78
2023/10/03 15:22:21;;;;;;;3.60;1.10;;;19.20;99.90;;;;;;6247512;28;20124;-78
2023/10/03 15:25:24;;;;;;;1.98;1.10;;;19.20;99.90;;;;;;6247356;28;20064;-78
2023/10/03 15:28:26;;;;;;;3.65;0.90;;;19.20;99.90;;;;;;6246976;28;20045;-77
2023/10/03 15:31:27;;;;;;;1.55;1.08;;;19.10;99.90;;;;;;6247607;28;20049;-79
2023/10/03 15:34:32;;;;;;;3.83;1.27;;;19.10;99.90;;;;;;6247154;28;20045;-77
2023/10/03 15:37:34;;;;;;;2.78;1.27;;;18.90;99.90;;;;;;6246196;28;20045;-77
2023/10/03 15:40:36;;;;;;;12.85;3.35;;;18.80;99.90;;;;;;6252454;28;20059;-77
2023/10/03 15:43:38;;;;;;;1.23;0.90;;;18.80;99.90;;;;;;6250046;28;20049;-80
2023/10/03 15:46:41;;;;;;;4.80;1.27;;;18.70;99.90;;;;;;6248728;28;20064;-77
2023/10/03 15:49:44;;;;;;;1.77;1.23;;;18.70;99.90;;;;;;6249791;28;20045;-78
2023/10/03 15:52:46;;;;;;;1.48;0.88;;;18.60;99.90;;;;;;6249744;28;20061;-78
2023/10/03 15:55:48;;;;;;;0.63;0.55;;;18.50;99.90;;;;;;6248486;28;20041;-78
2023/10/03 15:58:50;;;;;;;1.52;1.08;;;18.40;99.90;;;;;;6249245;28;20044;-80
2023/10/03 16:01:52;;;;;;;5.28;0.90;;;18.30;99.90;;;;;;6254107;28;20047;-79